Andros, Greece
Current Conditions -  °F | °C
As of 5:50 PM on Monday 22 Dec 2014 (Local Time) from LGMK Reporting Station
Few Clouds Few Clouds  
Wind Chill: 50°   Ceiling: Unl
Heat Index: 50°   Visibility: 6mi
Dew Point: 32°   Wind: 16mph
Humidity: 50%   Direction: 360°N
Pressure: 30.3"   Gusts: NA
Location:  37.83°N, 24.93°E
Report Text: LGMK 221450Z 36014KT 9999 FEW020 10/00 Q1026
Loading
Personal Weather Stations






























Interactive Weather Map New forecast layout! Learn more

10-Day Weather Forecast

Advertisements
Track Severe Weather on mobile